sensor_id;sensor_type;location;lat;lon;timestamp;pressure;altitude;pressure_sealevel;temperature
48628;BMP280;34424;52.234;6.500;2023-10-13T00:00:42;101043.1;;;15.03
48628;BMP280;34424;52.234;6.500;2023-10-13T00:05:42;101049.8;;;15.09
48628;BMP280;34424;52.234;6.500;2023-10-13T00:10:42;101037;;;15.11
48628;BMP280;34424;52.234;6.500;2023-10-13T00:15:43;101031.6;;;15.13
48628;BMP280;34424;52.234;6.500;2023-10-13T00:20:42;101031.8;;;15.1
48628;BMP280;34424;52.234;6.500;2023-10-13T00:25:42;101023.6;;;15.09
48628;BMP280;34424;52.234;6.500;2023-10-13T00:30:42;101027.9;;;15.14
48628;BMP280;34424;52.234;6.500;2023-10-13T00:35:42;101016;;;15.18
48628;BMP280;34424;52.234;6.500;2023-10-13T00:40:44;101014.3;;;15.14
48628;BMP280;34424;52.234;6.500;2023-10-13T00:45:42;101012.1;;;15.06
48628;BMP280;34424;52.234;6.500;2023-10-13T00:50:42;101009.6;;;15.06
48628;BMP280;34424;52.234;6.500;2023-10-13T00:55:42;101008;;;15.05
48628;BMP280;34424;52.234;6.500;2023-10-13T01:00:42;100998.8;;;15.09
48628;BMP280;34424;52.234;6.500;2023-10-13T01:05:42;100988.5;;;15.07
48628;BMP280;34424;52.234;6.500;2023-10-13T01:10:42;100994.6;;;15.07
48628;BMP280;34424;52.234;6.500;2023-10-13T01:15:42;100987.8;;;15.09
48628;BMP280;34424;52.234;6.500;2023-10-13T01:20:42;100986.2;;;15.07
48628;BMP280;34424;52.234;6.500;2023-10-13T01:25:42;100977.5;;;15.09
48628;BMP280;34424;52.234;6.500;2023-10-13T01:30:42;100974.5;;;15.06
48628;BMP280;34424;52.234;6.500;2023-10-13T01:35:42;100970;;;15.03
48628;BMP280;34424;52.234;6.500;2023-10-13T01:40:42;100962;;;15.05
48628;BMP280;34424;52.234;6.500;2023-10-13T01:45:42;100954.6;;;15.07
48628;BMP280;34424;52.234;6.500;2023-10-13T01:50:42;100944.1;;;15.08
48628;BMP280;34424;52.234;6.500;2023-10-13T01:55:42;100933.8;;;15.12
48628;BMP280;34424;52.234;6.500;2023-10-13T02:00:42;100927.7;;;15.11
48628;BMP280;34424;52.234;6.500;2023-10-13T02:05:42;100919.1;;;15.12
48628;BMP280;34424;52.234;6.500;2023-10-13T02:10:42;100908.8;;;15.06
48628;BMP280;34424;52.234;6.500;2023-10-13T02:15:42;100900.1;;;15.12
48628;BMP280;34424;52.234;6.500;2023-10-13T02:20:42;100898.7;;;15.17
48628;BMP280;34424;52.234;6.500;2023-10-13T02:25:42;100896.8;;;15.14
48628;BMP280;34424;52.234;6.500;2023-10-13T02:30:42;100890.1;;;15.16
48628;BMP280;34424;52.234;6.500;2023-10-13T02:35:42;100882.1;;;15.14
48628;BMP280;34424;52.234;6.500;2023-10-13T02:40:42;100863.5;;;15.19
48628;BMP280;34424;52.234;6.500;2023-10-13T02:45:45;100866.7;;;15.14
48628;BMP280;34424;52.234;6.500;2023-10-13T02:50:43;100858.1;;;15.17
48628;BMP280;34424;52.234;6.500;2023-10-13T02:55:52;100863.5;;;15.16
48628;BMP280;34424;52.234;6.500;2023-10-13T03:00:42;100856.1;;;15.19
48628;BMP280;34424;52.234;6.500;2023-10-13T03:05:42;100849.9;;;15.13
48628;BMP280;34424;52.234;6.500;2023-10-13T03:10:42;100848.2;;;15.13
48628;BMP280;34424;52.234;6.500;2023-10-13T03:15:42;100843.8;;;15.09
48628;BMP280;34424;52.234;6.500;2023-10-13T03:20:42;100832;;;15.07
48628;BMP280;34424;52.234;6.500;2023-10-13T03:25:42;100823.6;;;14.99
48628;BMP280;34424;52.234;6.500;2023-10-13T03:30:42;100813;;;14.98
48628;BMP280;34424;52.234;6.500;2023-10-13T03:35:42;100801.1;;;14.89
48628;BMP280;34424;52.234;6.500;2023-10-13T03:40:42;100789.2;;;14.89
48628;BMP280;34424;52.234;6.500;2023-10-13T03:45:44;100782.8;;;14.88
48628;BMP280;34424;52.234;6.500;2023-10-13T03:50:42;100778.1;;;14.83
48628;BMP280;34424;52.234;6.500;2023-10-13T03:55:42;100770.3;;;14.82
48628;BMP280;34424;52.234;6.500;2023-10-13T04:00:42;100743.8;;;14.84
48628;BMP280;34424;52.234;6.500;2023-10-13T04:05:42;100738.8;;;14.8
48628;BMP280;34424;52.234;6.500;2023-10-13T04:10:42;100726.1;;;14.79
48628;BMP280;34424;52.234;6.500;2023-10-13T04:15:42;100722.3;;;14.79
48628;BMP280;34424;52.234;6.500;2023-10-13T04:20:42;100727.6;;;14.83
48628;BMP280;34424;52.234;6.500;2023-10-13T04:25:42;100699.5;;;14.82
48628;BMP280;34424;52.234;6.500;2023-10-13T04:30:42;100696.5;;;14.82
48628;BMP280;34424;52.234;6.500;2023-10-13T04:35:42;100673.8;;;14.79
48628;BMP280;34424;52.234;6.500;2023-10-13T04:40:44;100656;;;14.79
48628;BMP280;34424;52.234;6.500;2023-10-13T04:45:42;100644.8;;;14.84
48628;BMP280;34424;52.234;6.500;2023-10-13T04:50:43;100627.1;;;14.81
48628;BMP280;34424;52.234;6.500;2023-10-13T04:55:42;100619.9;;;14.83
48628;BMP280;34424;52.234;6.500;2023-10-13T05:00:42;100607.8;;;14.85
48628;BMP280;34424;52.234;6.500;2023-10-13T05:05:42;100598.4;;;14.83
48628;BMP280;34424;52.234;6.500;2023-10-13T05:10:42;100607.2;;;14.83
48628;BMP280;34424;52.234;6.500;2023-10-13T05:15:48;100584.5;;;14.78
48628;BMP280;34424;52.234;6.500;2023-10-13T05:20:42;100572.3;;;14.69
48628;BMP280;34424;52.234;6.500;2023-10-13T05:25:42;100555.6;;;14.64
48628;BMP280;34424;52.234;6.500;2023-10-13T05:30:42;100534.2;;;14.59
48628;BMP280;34424;52.234;6.500;2023-10-13T05:35:42;100527.5;;;14.57
48628;BMP280;34424;52.234;6.500;2023-10-13T05:40:42;100519.7;;;14.61
48628;BMP280;34424;52.234;6.500;2023-10-13T05:45:42;100513.6;;;14.7
48628;BMP280;34424;52.234;6.500;2023-10-13T05:50:42;100522.7;;;14.8
48628;BMP280;34424;52.234;6.500;2023-10-13T05:55:42;100522.8;;;14.96
48628;BMP280;34424;52.234;6.500;2023-10-13T06:00:42;100500.2;;;15.08
48628;BMP280;34424;52.234;6.500;2023-10-13T06:05:42;100519.8;;;15.3
48628;BMP280;34424;52.234;6.500;2023-10-13T06:10:42;100528.7;;;15.47
48628;BMP280;34424;52.234;6.500;2023-10-13T06:15:42;100537.8;;;15.55
48628;BMP280;34424;52.234;6.500;2023-10-13T06:20:42;100550.4;;;15.56
48628;BMP280;34424;52.234;6.500;2023-10-13T06:25:42;100541.4;;;15.66
48628;BMP280;34424;52.234;6.500;2023-10-13T06:30:42;100540.5;;;15.76
48628;BMP280;34424;52.234;6.500;2023-10-13T06:35:49;100525.9;;;15.69
48628;BMP280;34424;52.234;6.500;2023-10-13T06:40:44;100535.5;;;15.6
48628;BMP280;34424;52.234;6.500;2023-10-13T06:45:42;100532.9;;;15.57
48628;BMP280;34424;52.234;6.500;2023-10-13T06:50:42;100521;;;15.53
48628;BMP280;34424;52.234;6.500;2023-10-13T06:55:42;100533.1;;;15.56
48628;BMP280;34424;52.234;6.500;2023-10-13T07:00:42;100529.1;;;15.7
48628;BMP280;34424;52.234;6.500;2023-10-13T07:05:42;100523.3;;;15.81
48628;BMP280;34424;52.234;6.500;2023-10-13T07:10:46;100519.2;;;15.91
48628;BMP280;34424;52.234;6.500;2023-10-13T07:15:42;100518;;;16
48628;BMP280;34424;52.234;6.500;2023-10-13T07:20:43;100515.2;;;16.13
48628;BMP280;34424;52.234;6.500;2023-10-13T07:25:42;100514.7;;;16.25
48628;BMP280;34424;52.234;6.500;2023-10-13T07:30:42;100503.2;;;16.31
48628;BMP280;34424;52.234;6.500;2023-10-13T07:35:42;100501.1;;;16.36
48628;BMP280;34424;52.234;6.500;2023-10-13T07:40:42;100485.1;;;16.39
48628;BMP280;34424;52.234;6.500;2023-10-13T07:45:42;100474;;;16.45
48628;BMP280;34424;52.234;6.500;2023-10-13T07:50:42;100456.7;;;16.49
48628;BMP280;34424;52.234;6.500;2023-10-13T07:55:42;100446.1;;;16.52
48628;BMP280;34424;52.234;6.500;2023-10-13T08:00:42;100422.4;;;16.51
48628;BMP280;34424;52.234;6.500;2023-10-13T08:05:42;100413.4;;;16.51
48628;BMP280;34424;52.234;6.500;2023-10-13T08:10:42;100405.5;;;16.53
48628;BMP280;34424;52.234;6.500;2023-10-13T08:15:43;100402;;;16.6
48628;BMP280;34424;52.234;6.500;2023-10-13T08:20:43;100394.6;;;16.59
48628;BMP280;34424;52.234;6.500;2023-10-13T08:25:42;100399.2;;;16.65
48628;BMP280;34424;52.234;6.500;2023-10-13T08:30:42;100381.2;;;16.82
48628;BMP280;34424;52.234;6.500;2023-10-13T08:35:42;100389.6;;;16.98
48628;BMP280;34424;52.234;6.500;2023-10-13T08:40:46;100391.3;;;17.03
48628;BMP280;34424;52.234;6.500;2023-10-13T08:45:42;100402.4;;;17.18
48628;BMP280;34424;52.234;6.500;2023-10-13T08:50:44;100402.4;;;17.65
48628;BMP280;34424;52.234;6.500;2023-10-13T08:55:42;100398.1;;;17.81
48628;BMP280;34424;52.234;6.500;2023-10-13T09:00:43;100379.2;;;18
48628;BMP280;34424;52.234;6.500;2023-10-13T09:05:42;100390.3;;;18.28
48628;BMP280;34424;52.234;6.500;2023-10-13T09:10:42;100384.6;;;18.52
48628;BMP280;34424;52.234;6.500;2023-10-13T09:15:42;100369;;;18.86
48628;BMP280;34424;52.234;6.500;2023-10-13T09:20:42;100378.1;;;18.73
48628;BMP280;34424;52.234;6.500;2023-10-13T09:25:42;100352.6;;;18.45
48628;BMP280;34424;52.234;6.500;2023-10-13T09:30:46;100336.7;;;18.47
48628;BMP280;34424;52.234;6.500;2023-10-13T09:35:42;100346.1;;;18.48
48628;BMP280;34424;52.234;6.500;2023-10-13T09:40:42;100328.5;;;18.49
48628;BMP280;34424;52.234;6.500;2023-10-13T09:45:42;100325.8;;;18.51
48628;BMP280;34424;52.234;6.500;2023-10-13T09:50:43;100325;;;18.52
48628;BMP280;34424;52.234;6.500;2023-10-13T09:55:43;100325.6;;;18.42
48628;BMP280;34424;52.234;6.500;2023-10-13T10:00:45;100328.5;;;18.32
48628;BMP280;34424;52.234;6.500;2023-10-13T10:05:42;100322.1;;;18.29
48628;BMP280;34424;52.234;6.500;2023-10-13T10:10:47;100322.6;;;18.17
48628;BMP280;34424;52.234;6.500;2023-10-13T10:15:43;100319.5;;;18.25
48628;BMP280;34424;52.234;6.500;2023-10-13T10:20:42;100333;;;18.39
48628;BMP280;34424;52.234;6.500;2023-10-13T10:25:42;100314;;;18.46
48628;BMP280;34424;52.234;6.500;2023-10-13T10:30:43;100302.4;;;18.36
48628;BMP280;34424;52.234;6.500;2023-10-13T10:35:43;100284.2;;;18.32
48628;BMP280;34424;52.234;6.500;2023-10-13T10:40:51;100287.4;;;18.29
48628;BMP280;34424;52.234;6.500;2023-10-13T10:45:45;100281.8;;;18.4
48628;BMP280;34424;52.234;6.500;2023-10-13T10:50:42;100268.3;;;18.41
48628;BMP280;34424;52.234;6.500;2023-10-13T10:55:42;100269.1;;;18.52
48628;BMP280;34424;52.234;6.500;2023-10-13T11:00:42;100257.9;;;18.59
48628;BMP280;34424;52.234;6.500;2023-10-13T11:05:48;100230;;;18.86
48628;BMP280;34424;52.234;6.500;2023-10-13T11:10:49;100223;;;19.44
48628;BMP280;34424;52.234;6.500;2023-10-13T11:15:45;100218.2;;;19.92
48628;BMP280;34424;52.234;6.500;2023-10-13T11:20:45;100209.3;;;20.34
48628;BMP280;34424;52.234;6.500;2023-10-13T11:25:42;100202;;;20.07
48628;BMP280;34424;52.234;6.500;2023-10-13T11:30:43;100188.2;;;20.38
48628;BMP280;34424;52.234;6.500;2023-10-13T11:35:42;100195.5;;;20.71
48628;BMP280;34424;52.234;6.500;2023-10-13T11:40:42;100193.1;;;20.7
48628;BMP280;34424;52.234;6.500;2023-10-13T11:45:47;100176.4;;;20.36
48628;BMP280;34424;52.234;6.500;2023-10-13T11:50:42;100171;;;19.95
48628;BMP280;34424;52.234;6.500;2023-10-13T11:55:42;100164.9;;;19.76
48628;BMP280;34424;52.234;6.500;2023-10-13T12:00:42;100152;;;19.95
48628;BMP280;34424;52.234;6.500;2023-10-13T12:05:42;100136.3;;;19.85
48628;BMP280;34424;52.234;6.500;2023-10-13T12:10:42;100133.1;;;19.8
48628;BMP280;34424;52.234;6.500;2023-10-13T12:15:42;100121.8;;;19.74
48628;BMP280;34424;52.234;6.500;2023-10-13T12:20:42;100111.2;;;19.77
48628;BMP280;34424;52.234;6.500;2023-10-13T12:25:42;100111.3;;;19.83
48628;BMP280;34424;52.234;6.500;2023-10-13T12:30:42;100111.8;;;19.96
48628;BMP280;34424;52.234;6.500;2023-10-13T12:35:43;100098.2;;;20.55
48628;BMP280;34424;52.234;6.500;2023-10-13T12:40:42;100109.8;;;21.68
48628;BMP280;34424;52.234;6.500;2023-10-13T12:45:43;100107.1;;;21.46
48628;BMP280;34424;52.234;6.500;2023-10-13T12:50:42;100097.7;;;21.01
48628;BMP280;34424;52.234;6.500;2023-10-13T12:55:43;100109.1;;;21.01
48628;BMP280;34424;52.234;6.500;2023-10-13T13:00:42;100120.5;;;20.88
48628;BMP280;34424;52.234;6.500;2023-10-13T13:05:42;100108.4;;;20.78
48628;BMP280;34424;52.234;6.500;2023-10-13T13:10:42;100098.6;;;20.78
48628;BMP280;34424;52.234;6.500;2023-10-13T13:15:42;100096.6;;;20.64
48628;BMP280;34424;52.234;6.500;2023-10-13T13:20:42;100096.6;;;20.66
48628;BMP280;34424;52.234;6.500;2023-10-13T13:25:42;100111.6;;;20.6
48628;BMP280;34424;52.234;6.500;2023-10-13T13:30:44;100104.6;;;20.62
48628;BMP280;34424;52.234;6.500;2023-10-13T13:35:42;100106.5;;;20.61
48628;BMP280;34424;52.234;6.500;2023-10-13T13:40:42;100118.8;;;20.57
48628;BMP280;34424;52.234;6.500;2023-10-13T13:45:44;100102;;;20.55
48628;BMP280;34424;52.234;6.500;2023-10-13T13:50:42;100100.8;;;20.51
48628;BMP280;34424;52.234;6.500;2023-10-13T13:55:42;100099.7;;;20.36
48628;BMP280;34424;52.234;6.500;2023-10-13T14:00:42;100106.2;;;20.14
48628;BMP280;34424;52.234;6.500;2023-10-13T14:05:45;100090.8;;;19.66
48628;BMP280;34424;52.234;6.500;2023-10-13T14:10:42;100091.1;;;19.14
48628;BMP280;34424;52.234;6.500;2023-10-13T14:15:42;100089.4;;;18.89
48628;BMP280;34424;52.234;6.500;2023-10-13T14:20:42;100086.6;;;18.84
48628;BMP280;34424;52.234;6.500;2023-10-13T14:25:43;100086.7;;;19.09
48628;BMP280;34424;52.234;6.500;2023-10-13T14:30:42;100088;;;19.19
48628;BMP280;34424;52.234;6.500;2023-10-13T14:35:43;100095;;;19
48628;BMP280;34424;52.234;6.500;2023-10-13T14:40:42;100099.1;;;18.84
48628;BMP280;34424;52.234;6.500;2023-10-13T14:45:43;100097;;;18.67
48628;BMP280;34424;52.234;6.500;2023-10-13T14:50:43;100090.5;;;18.41
48628;BMP280;34424;52.234;6.500;2023-10-13T14:55:43;100082.9;;;18.26
48628;BMP280;34424;52.234;6.500;2023-10-13T15:00:43;100090.6;;;18.24
48628;BMP280;34424;52.234;6.500;2023-10-13T15:05:43;100112.4;;;18.11
48628;BMP280;34424;52.234;6.500;2023-10-13T15:10:43;100113.3;;;18.04
48628;BMP280;34424;52.234;6.500;2023-10-13T15:15:43;100101.2;;;17.97
48628;BMP280;34424;52.234;6.500;2023-10-13T15:20:43;100105.8;;;17.88
48628;BMP280;34424;52.234;6.500;2023-10-13T15:25:43;100102.4;;;17.88
48628;BMP280;34424;52.234;6.500;2023-10-13T15:30:43;100107.4;;;17.83
48628;BMP280;34424;52.234;6.500;2023-10-13T15:35:43;100116;;;17.61
48628;BMP280;34424;52.234;6.500;2023-10-13T15:40:45;100125.2;;;17.37
48628;BMP280;34424;52.234;6.500;2023-10-13T15:45:43;100115.5;;;17.15
48628;BMP280;34424;52.234;6.500;2023-10-13T15:50:43;100097.9;;;17.02
48628;BMP280;34424;52.234;6.500;2023-10-13T15:55:43;100096;;;16.93
48628;BMP280;34424;52.234;6.500;2023-10-13T16:00:43;100101.1;;;16.86
48628;BMP280;34424;52.234;6.500;2023-10-13T16:05:43;100088.8;;;16.8
48628;BMP280;34424;52.234;6.500;2023-10-13T16:10:43;100089.6;;;16.76
48628;BMP280;34424;52.234;6.500;2023-10-13T16:15:43;100055.3;;;16.75
48628;BMP280;34424;52.234;6.500;2023-10-13T16:20:43;100041.8;;;16.68
48628;BMP280;34424;52.234;6.500;2023-10-13T16:25:43;100029.1;;;16.67
48628;BMP280;34424;52.234;6.500;2023-10-13T16:30:43;100020.1;;;16.7
48628;BMP280;34424;52.234;6.500;2023-10-13T16:35:45;100002.8;;;16.74
48628;BMP280;34424;52.234;6.500;2023-10-13T16:40:43;100021.3;;;16.78
48628;BMP280;34424;52.234;6.500;2023-10-13T16:45:43;100015.2;;;16.85
48628;BMP280;34424;52.234;6.500;2023-10-13T16:50:43;100003.7;;;16.92
48628;BMP280;34424;52.234;6.500;2023-10-13T16:55:43;100005.9;;;16.99
48628;BMP280;34424;52.234;6.500;2023-10-13T17:00:43;99993.97;;;17.2
48628;BMP280;34424;52.234;6.500;2023-10-13T17:05:43;99991.09;;;17.26
48628;BMP280;34424;52.234;6.500;2023-10-13T17:10:43;99980.94;;;17.35
48628;BMP280;34424;52.234;6.500;2023-10-13T17:15:43;99963.72;;;17.39
48628;BMP280;34424;52.234;6.500;2023-10-13T17:20:43;99960.69;;;17.47
48628;BMP280;34424;52.234;6.500;2023-10-13T17:25:43;99952;;;17.51
48628;BMP280;34424;52.234;6.500;2023-10-13T17:30:43;99948.47;;;17.6
48628;BMP280;34424;52.234;6.500;2023-10-13T17:35:43;99940.53;;;17.52
48628;BMP280;34424;52.234;6.500;2023-10-13T17:40:43;99944.03;;;17.46
48628;BMP280;34424;52.234;6.500;2023-10-13T17:45:43;99970.23;;;17.3
48628;BMP280;34424;52.234;6.500;2023-10-13T17:50:43;99999.13;;;16.73
48628;BMP280;34424;52.234;6.500;2023-10-13T17:55:43;100005.2;;;16.26
48628;BMP280;34424;52.234;6.500;2023-10-13T18:00:43;100006.4;;;15.88
48628;BMP280;34424;52.234;6.500;2023-10-13T18:05:43;100002.8;;;15.74
48628;BMP280;34424;52.234;6.500;2023-10-13T18:10:47;99984.53;;;15.59
48628;BMP280;34424;52.234;6.500;2023-10-13T18:15:43;99992.56;;;15.47
48628;BMP280;34424;52.234;6.500;2023-10-13T18:20:43;99988.26;;;15.47
48628;BMP280;34424;52.234;6.500;2023-10-13T18:25:43;99997.77;;;15.51
48628;BMP280;34424;52.234;6.500;2023-10-13T18:30:43;99998.13;;;15.56
48628;BMP280;34424;52.234;6.500;2023-10-13T18:35:44;100015.4;;;15.49
48628;BMP280;34424;52.234;6.500;2023-10-13T18:40:43;100040.3;;;15.45
48628;BMP280;34424;52.234;6.500;2023-10-13T18:45:43;100012;;;15.39
48628;BMP280;34424;52.234;6.500;2023-10-13T18:50:44;99982.84;;;15.35
48628;BMP280;34424;52.234;6.500;2023-10-13T18:55:43;99950.31;;;15.35
48628;BMP280;34424;52.234;6.500;2023-10-13T19:00:43;99936.55;;;15.32
48628;BMP280;34424;52.234;6.500;2023-10-13T19:05:43;99939.02;;;15.31
48628;BMP280;34424;52.234;6.500;2023-10-13T19:10:43;99921.39;;;15.31
48628;BMP280;34424;52.234;6.500;2023-10-13T19:15:43;99914.28;;;15.35
48628;BMP280;34424;52.234;6.500;2023-10-13T19:20:43;99921.05;;;15.34
48628;BMP280;34424;52.234;6.500;2023-10-13T19:25:43;99917.79;;;15.44
48628;BMP280;34424;52.234;6.500;2023-10-13T19:30:43;99920.81;;;15.48
48628;BMP280;34424;52.234;6.500;2023-10-13T19:35:43;99922.8;;;15.53
48628;BMP280;34424;52.234;6.500;2023-10-13T19:40:43;99915.5;;;15.57
48628;BMP280;34424;52.234;6.500;2023-10-13T19:45:43;99900.72;;;15.58
48628;BMP280;34424;52.234;6.500;2023-10-13T19:50:43;99878.08;;;15.58
48628;BMP280;34424;52.234;6.500;2023-10-13T19:55:43;99872.41;;;15.5
48628;BMP280;34424;52.234;6.500;2023-10-13T20:00:43;99873.77;;;15.46
48628;BMP280;34424;52.234;6.500;2023-10-13T20:05:43;99868.44;;;15.44
48628;BMP280;34424;52.234;6.500;2023-10-13T20:10:43;99849.58;;;15.41
48628;BMP280;34424;52.234;6.500;2023-10-13T20:15:43;99846.85;;;15.43
48628;BMP280;34424;52.234;6.500;2023-10-13T20:20:43;99825.98;;;15.48
48628;BMP280;34424;52.234;6.500;2023-10-13T20:25:43;99837.97;;;15.61
48628;BMP280;34424;52.234;6.500;2023-10-13T20:30:43;99831.05;;;15.71
48628;BMP280;34424;52.234;6.500;2023-10-13T20:35:49;99822.98;;;15.71
48628;BMP280;34424;52.234;6.500;2023-10-13T20:40:43;99809.13;;;15.65
48628;BMP280;34424;52.234;6.500;2023-10-13T20:45:43;99804.17;;;15.57
48628;BMP280;34424;52.234;6.500;2023-10-13T20:50:43;99808.52;;;15.57
48628;BMP280;34424;52.234;6.500;2023-10-13T20:55:43;99796.13;;;15.55
48628;BMP280;34424;52.234;6.500;2023-10-13T21:00:43;99775.05;;;15.54
48628;BMP280;34424;52.234;6.500;2023-10-13T21:05:48;99752.39;;;15.52
48628;BMP280;34424;52.234;6.500;2023-10-13T21:10:43;99762.72;;;15.55
48628;BMP280;34424;52.234;6.500;2023-10-13T21:15:43;99796.83;;;15.62
48628;BMP280;34424;52.234;6.500;2023-10-13T21:20:43;99874.77;;;15.38
48628;BMP280;34424;52.234;6.500;2023-10-13T21:25:43;99865.66;;;14.85
48628;BMP280;34424;52.234;6.500;2023-10-13T21:30:43;99845.59;;;14.62
48628;BMP280;34424;52.234;6.500;2023-10-13T21:35:43;99838.57;;;14.54
48628;BMP280;34424;52.234;6.500;2023-10-13T21:40:43;99839.41;;;14.51
48628;BMP280;34424;52.234;6.500;2023-10-13T21:45:43;99815.05;;;14.38
48628;BMP280;34424;52.234;6.500;2023-10-13T21:50:47;99796.13;;;14.22
48628;BMP280;34424;52.234;6.500;2023-10-13T21:55:43;99786.64;;;14.04
48628;BMP280;34424;52.234;6.500;2023-10-13T22:00:43;99788.91;;;14.01
48628;BMP280;34424;52.234;6.500;2023-10-13T22:05:43;99791.07;;;13.96
48628;BMP280;34424;52.234;6.500;2023-10-13T22:10:43;99788.37;;;13.94
48628;BMP280;34424;52.234;6.500;2023-10-13T22:15:43;99764.97;;;13.93
48628;BMP280;34424;52.234;6.500;2023-10-13T22:20:43;99766.19;;;14.07
48628;BMP280;34424;52.234;6.500;2023-10-13T22:25:43;99744.58;;;14.19
48628;BMP280;34424;52.234;6.500;2023-10-13T22:30:43;99746.94;;;14.38
48628;BMP280;34424;52.234;6.500;2023-10-13T22:35:43;99740.39;;;14.53
48628;BMP280;34424;52.234;6.500;2023-10-13T22:40:46;99736.69;;;14.59
48628;BMP280;34424;52.234;6.500;2023-10-13T22:45:43;99739.17;;;14.55
48628;BMP280;34424;52.234;6.500;2023-10-13T22:50:43;99739.48;;;14.5
48628;BMP280;34424;52.234;6.500;2023-10-13T22:55:43;99761.24;;;14.48
48628;BMP280;34424;52.234;6.500;2023-10-13T23:00:43;99834.14;;;13.64
48628;BMP280;34424;52.234;6.500;2023-10-13T23:05:43;99819.59;;;12.68
48628;BMP280;34424;52.234;6.500;2023-10-13T23:10:43;99845.06;;;12.3
48628;BMP280;34424;52.234;6.500;2023-10-13T23:15:43;99840.62;;;12.1
48628;BMP280;34424;52.234;6.500;2023-10-13T23:20:43;99848.47;;;11.93
48628;BMP280;34424;52.234;6.500;2023-10-13T23:25:43;99871.44;;;11.81
48628;BMP280;34424;52.234;6.500;2023-10-13T23:30:43;99879.25;;;11.77
48628;BMP280;34424;52.234;6.500;2023-10-13T23:35:43;99887.7;;;11.75
48628;BMP280;34424;52.234;6.500;2023-10-13T23:40:43;99876.13;;;11.71
48628;BMP280;34424;52.234;6.500;2023-10-13T23:45:43;99889.55;;;11.68
48628;BMP280;34424;52.234;6.500;2023-10-13T23:50:43;99894.34;;;11.67
48628;BMP280;34424;52.234;6.500;2023-10-13T23:55:43;99898.34;;;11.64
